createdAt,value
2022-08-30T00:00:13.049Z,22.94
2022-08-30T00:01:47.578Z,22.97
2022-08-30T00:03:21.982Z,22.97
2022-08-30T00:04:55.386Z,22.99
2022-08-30T00:06:30.902Z,23.03
2022-08-30T00:08:04.599Z,23.00
2022-08-30T00:09:36.759Z,23.01
2022-08-30T00:11:13.766Z,23.01
2022-08-30T00:12:49.127Z,23.01
2022-08-30T00:14:22.770Z,23.01
2022-08-30T00:15:56.000Z,22.97
2022-08-30T00:17:30.646Z,22.88
2022-08-30T00:19:04.101Z,22.88
2022-08-30T00:20:37.997Z,22.85
2022-08-30T00:22:11.282Z,22.81
2022-08-30T00:23:43.538Z,22.75
2022-08-30T00:25:17.590Z,22.70
2022-08-30T00:26:50.885Z,22.63
2022-08-30T00:28:24.192Z,22.57
2022-08-30T00:29:57.822Z,22.60
2022-08-30T00:31:31.895Z,22.62
2022-08-30T00:33:06.644Z,22.62
2022-08-30T00:34:39.848Z,22.55
2022-08-30T00:36:13.127Z,22.54
2022-08-30T00:37:46.618Z,22.55
2022-08-30T00:39:19.823Z,22.55
2022-08-30T00:40:53.841Z,22.54
2022-08-30T00:42:27.767Z,22.50
2022-08-30T00:44:01.113Z,22.46
2022-08-30T00:45:38.535Z,22.42
2022-08-30T00:47:12.019Z,22.39
2022-08-30T00:48:50.797Z,22.36
2022-08-30T00:50:28.370Z,22.41
2022-08-30T00:52:02.289Z,22.41
2022-08-30T00:53:38.875Z,22.45
2022-08-30T00:55:14.275Z,22.49
2022-08-30T00:56:49.726Z,22.49
2022-08-30T00:58:32.299Z,22.46
2022-08-30T01:00:08.241Z,22.44
2022-08-30T01:01:42.949Z,22.37
2022-08-30T01:03:17.037Z,22.30
2022-08-30T01:04:53.262Z,22.34
2022-08-30T01:06:32.532Z,22.33
2022-08-30T01:08:06.097Z,22.33
2022-08-30T01:09:39.808Z,22.36
2022-08-30T01:11:14.976Z,22.39
2022-08-30T01:12:48.894Z,22.38
2022-08-30T01:14:22.218Z,22.39
2022-08-30T01:16:01.192Z,22.44
2022-08-30T01:17:36.038Z,22.44
2022-08-30T01:19:21.424Z,22.47
2022-08-30T01:21:03.951Z,22.35
2022-08-30T01:22:44.474Z,22.23
2022-08-30T01:24:22.783Z,22.19
2022-08-30T01:25:56.553Z,22.18
2022-08-30T01:27:30.004Z,22.14
2022-08-30T01:29:07.258Z,22.12
2022-08-30T01:30:43.113Z,22.03
2022-08-30T01:32:21.238Z,21.99
2022-08-30T01:33:54.968Z,22.00
2022-08-30T01:35:36.301Z,22.01
2022-08-30T01:37:09.550Z,22.00
2022-08-30T01:38:47.464Z,22.02
2022-08-30T01:40:22.852Z,22.00
2022-08-30T01:41:56.232Z,21.97
2022-08-30T01:43:29.756Z,21.99
2022-08-30T01:45:03.671Z,21.96
2022-08-30T01:46:40.574Z,22.00
2022-08-30T01:48:13.044Z,21.95
2022-08-30T01:49:46.926Z,21.89
2022-08-30T01:51:20.110Z,21.84
2022-08-30T01:52:53.323Z,21.87
2022-08-30T01:54:27.316Z,21.87
2022-08-30T01:56:08.728Z,21.89
2022-08-30T01:57:41.906Z,21.88
2022-08-30T01:59:15.052Z,21.86
2022-08-30T02:00:47.510Z,21.84
2022-08-30T02:02:24.578Z,21.80
2022-08-30T02:03:58.508Z,21.85
2022-08-30T02:05:31.303Z,21.84
2022-08-30T02:07:05.757Z,21.80
2022-08-30T02:08:40.331Z,21.79
2022-08-30T02:10:15.093Z,21.80
2022-08-30T02:11:49.949Z,21.77
2022-08-30T02:13:23.714Z,21.73
2022-08-30T02:14:56.920Z,21.72
2022-08-30T02:16:30.172Z,21.74
2022-08-30T02:18:03.411Z,21.73
2022-08-30T02:19:36.874Z,21.73
2022-08-30T02:21:10.490Z,21.69
2022-08-30T02:22:47.641Z,21.67
2022-08-30T02:24:21.678Z,21.64
2022-08-30T02:25:56.285Z,21.67
2022-08-30T02:27:29.931Z,21.66
2022-08-30T02:29:05.291Z,21.53
2022-08-30T02:30:37.678Z,21.57
2022-08-30T02:32:11.162Z,21.46
2022-08-30T02:33:44.510Z,21.50
2022-08-30T02:35:17.938Z,21.47
2022-08-30T02:36:51.176Z,21.48
2022-08-30T02:38:25.095Z,21.50
2022-08-30T02:39:57.363Z,21.53
2022-08-30T02:41:30.594Z,21.55
2022-08-30T02:43:05.216Z,21.52
2022-08-30T02:44:38.623Z,21.50
2022-08-30T02:46:12.015Z,21.56
2022-08-30T02:47:47.074Z,21.53
2022-08-30T02:49:34.967Z,21.56
2022-08-30T02:51:11.527Z,21.55
2022-08-30T02:52:45.219Z,21.55
2022-08-30T02:54:21.479Z,21.56
2022-08-30T02:55:54.637Z,21.41
2022-08-30T02:57:28.129Z,21.35
2022-08-30T02:59:02.694Z,21.35
2022-08-30T03:00:36.279Z,21.35
2022-08-30T03:02:09.545Z,21.31
2022-08-30T03:03:44.342Z,21.27
2022-08-30T03:05:18.790Z,21.22
2022-08-30T03:06:52.154Z,21.16
2022-08-30T03:08:25.575Z,21.14
2022-08-30T03:09:59.021Z,21.17
2022-08-30T03:11:33.059Z,21.15
2022-08-30T03:13:07.554Z,21.18
2022-08-30T03:14:42.167Z,21.17
2022-08-30T03:16:16.358Z,21.15
2022-08-30T03:17:49.602Z,21.09
2022-08-30T03:19:23.215Z,21.17
2022-08-30T03:20:55.365Z,21.16
2022-08-30T03:22:28.910Z,21.16
2022-08-30T03:24:02.191Z,21.17
2022-08-30T03:25:35.563Z,21.22
2022-08-30T03:27:09.133Z,21.21
2022-08-30T03:28:43.511Z,21.22
2022-08-30T03:30:18.921Z,21.24
2022-08-30T03:31:54.925Z,21.22
2022-08-30T03:33:28.519Z,21.20
2022-08-30T03:35:01.277Z,21.17
2022-08-30T03:36:34.810Z,21.18
2022-08-30T03:38:08.005Z,21.15
2022-08-30T03:39:41.849Z,21.12
2022-08-30T03:41:16.949Z,21.08
2022-08-30T03:42:50.262Z,21.08
2022-08-30T03:44:23.461Z,21.08
2022-08-30T03:45:57.217Z,21.07
2022-08-30T03:47:30.651Z,21.08
2022-08-30T03:49:03.863Z,21.09
2022-08-30T03:50:37.622Z,21.05
2022-08-30T03:52:10.147Z,21.02
2022-08-30T03:53:43.592Z,20.97
2022-08-30T03:55:16.914Z,20.89
2022-08-30T03:56:50.141Z,20.89
2022-08-30T03:58:23.394Z,20.89
2022-08-30T03:59:57.026Z,20.89
2022-08-30T04:01:31.705Z,20.87
2022-08-30T04:03:05.488Z,20.93
2022-08-30T04:04:38.680Z,20.99
2022-08-30T04:06:12.544Z,21.07
2022-08-30T04:07:46.009Z,21.14
2022-08-30T04:09:19.651Z,21.20
2022-08-30T04:10:53.900Z,21.23
2022-08-30T04:12:27.499Z,21.27
2022-08-30T04:14:00.649Z,21.25
2022-08-30T04:15:33.848Z,21.36
2022-08-30T04:17:08.409Z,21.38
2022-08-30T04:18:41.800Z,21.39
2022-08-30T04:20:14.107Z,21.45
2022-08-30T04:21:47.291Z,21.49
2022-08-30T04:23:20.710Z,21.50
2022-08-30T04:24:54.222Z,21.55
2022-08-30T04:26:29.329Z,21.60
2022-08-30T04:28:02.974Z,21.71
2022-08-30T04:29:36.686Z,21.75
2022-08-30T04:31:12.046Z,21.81
2022-08-30T04:32:47.209Z,21.87
2022-08-30T04:34:20.544Z,21.91
2022-08-30T04:35:53.905Z,21.92
2022-08-30T04:37:27.144Z,21.93
2022-08-30T04:39:00.313Z,21.93
2022-08-30T04:40:33.633Z,21.96
2022-08-30T04:42:07.026Z,22.02
2022-08-30T04:43:40.227Z,22.09
2022-08-30T04:45:15.973Z,22.20
2022-08-30T04:46:48.238Z,22.31
2022-08-30T04:48:23.735Z,22.48
2022-08-30T04:49:57.480Z,22.67
2022-08-30T04:51:30.747Z,22.84
2022-08-30T04:53:03.959Z,23.16
2022-08-30T04:54:37.171Z,23.42
2022-08-30T04:56:12.034Z,23.70
2022-08-30T04:57:45.195Z,24.02
2022-08-30T04:59:18.412Z,24.35
2022-08-30T05:00:51.660Z,24.54
2022-08-30T05:02:25.745Z,24.75
2022-08-30T05:04:00.855Z,24.96
2022-08-30T05:05:42.637Z,25.19
2022-08-30T05:07:15.826Z,25.36
2022-08-30T05:08:49.229Z,25.67
2022-08-30T05:10:22.703Z,25.86
2022-08-30T05:11:55.922Z,25.91
2022-08-30T05:13:35.638Z,26.09
2022-08-30T05:15:11.730Z,26.34
2022-08-30T05:16:45.642Z,26.58
2022-08-30T05:18:19.190Z,26.65
2022-08-30T05:19:53.768Z,26.85
2022-08-30T05:21:29.086Z,27.03
2022-08-30T05:23:02.891Z,27.13
2022-08-30T05:24:36.687Z,27.33
2022-08-30T05:26:11.921Z,27.51
2022-08-30T05:27:45.397Z,27.75
2022-08-30T05:29:18.656Z,27.93
2022-08-30T05:30:51.924Z,28.18
2022-08-30T05:32:25.626Z,28.39
2022-08-30T05:33:59.571Z,28.66
2022-08-30T05:35:34.178Z,28.86
2022-08-30T05:37:07.430Z,28.93
2022-08-30T05:38:41.004Z,28.96
2022-08-30T05:40:17.661Z,28.95
2022-08-30T05:41:50.890Z,29.09
2022-08-30T05:43:26.888Z,28.98
2022-08-30T05:45:03.867Z,29.04
2022-08-30T05:46:38.202Z,29.11
2022-08-30T05:48:12.907Z,28.85
2022-08-30T05:49:46.378Z,28.74
2022-08-30T05:51:23.371Z,28.94
2022-08-30T05:52:57.099Z,29.15
2022-08-30T05:54:30.403Z,29.34
2022-08-30T05:56:04.873Z,29.37
2022-08-30T05:57:40.471Z,29.46
2022-08-30T05:59:15.079Z,29.22
2022-08-30T06:00:48.301Z,29.28
2022-08-30T06:02:21.568Z,29.60
2022-08-30T06:03:57.597Z,29.75
2022-08-30T06:05:33.545Z,29.94
2022-08-30T06:07:12.923Z,30.02
2022-08-30T06:08:49.063Z,30.02
2022-08-30T06:10:22.303Z,29.63
2022-08-30T06:11:55.783Z,29.43
2022-08-30T06:13:29.024Z,29.41
2022-08-30T06:15:02.437Z,29.57
2022-08-30T06:16:38.810Z,29.81
2022-08-30T06:18:12.755Z,30.13
2022-08-30T06:19:46.077Z,30.28
2022-08-30T06:21:19.579Z,30.48
2022-08-30T06:22:54.182Z,30.59
2022-08-30T06:24:41.035Z,30.71
2022-08-30T06:26:14.943Z,30.84
2022-08-30T06:27:50.434Z,30.94
2022-08-30T06:29:25.361Z,31.06
2022-08-30T06:30:58.849Z,31.12
2022-08-30T06:32:32.116Z,30.98
2022-08-30T06:34:05.460Z,31.03
2022-08-30T06:35:52.394Z,31.00
2022-08-30T06:37:33.174Z,31.03
2022-08-30T06:39:08.598Z,31.05
2022-08-30T06:40:41.897Z,31.14
2022-08-30T06:42:15.108Z,31.23
2022-08-30T06:43:49.352Z,31.33
2022-08-30T06:45:23.053Z,31.32
2022-08-30T06:46:56.314Z,31.24
2022-08-30T06:48:29.533Z,31.25
2022-08-30T06:50:02.999Z,31.25
2022-08-30T06:51:37.990Z,31.27
2022-08-30T06:53:12.958Z,31.15
2022-08-30T06:54:47.560Z,31.24
2022-08-30T06:56:22.225Z,31.30
2022-08-30T06:57:55.523Z,31.39
2022-08-30T06:59:29.253Z,31.61
2022-08-30T07:01:02.772Z,31.77
2022-08-30T07:02:38.013Z,31.93
2022-08-30T07:04:11.280Z,32.14
2022-08-30T07:05:44.475Z,32.23
2022-08-30T07:07:17.802Z,32.28
2022-08-30T07:08:56.317Z,32.43
2022-08-30T07:10:31.446Z,32.48
2022-08-30T07:12:06.707Z,32.33
2022-08-30T07:13:40.649Z,32.27
2022-08-30T07:15:14.927Z,32.12
2022-08-30T07:16:51.134Z,32.04
2022-08-30T07:18:42.791Z,31.97
2022-08-30T07:20:16.707Z,31.84
2022-08-30T07:21:50.999Z,32.02
2022-08-30T07:23:23.717Z,32.33
2022-08-30T07:24:57.086Z,32.63
2022-08-30T07:26:36.208Z,32.81
2022-08-30T07:28:10.443Z,33.16
2022-08-30T07:29:43.686Z,33.44
2022-08-30T07:31:19.738Z,33.72
2022-08-30T07:32:53.515Z,34.02
2022-08-30T07:34:27.566Z,34.34
2022-08-30T07:36:01.444Z,34.56
2022-08-30T07:37:35.542Z,34.82
2022-08-30T07:39:09.899Z,35.07
2022-08-30T07:40:43.439Z,35.39
2022-08-30T07:42:18.334Z,35.49
2022-08-30T07:43:51.865Z,35.58
2022-08-30T07:45:25.177Z,35.69
2022-08-30T07:46:58.395Z,35.65
2022-08-30T07:48:31.557Z,35.53
2022-08-30T07:50:05.882Z,35.66
2022-08-30T07:51:40.022Z,35.86
2022-08-30T07:53:13.770Z,35.95
2022-08-30T07:54:46.962Z,36.00
2022-08-30T07:56:26.842Z,36.04
2022-08-30T07:59:36.323Z,35.88
2022-08-30T08:01:11.054Z,35.67
2022-08-30T08:02:44.381Z,35.74
2022-08-30T08:04:17.723Z,35.63
2022-08-30T08:05:53.194Z,35.29
2022-08-30T08:07:26.459Z,35.52
2022-08-30T08:09:02.352Z,35.83
2022-08-30T08:10:38.133Z,35.94
2022-08-30T08:12:11.519Z,35.70
2022-08-30T08:13:53.691Z,35.66
2022-08-30T08:15:28.121Z,35.85
2022-08-30T08:17:01.643Z,36.17
2022-08-30T08:18:35.101Z,36.43
2022-08-30T08:20:09.764Z,36.19
2022-08-30T08:21:43.084Z,35.90
2022-08-30T08:23:17.099Z,35.42
2022-08-30T08:24:50.920Z,35.69
2022-08-30T08:26:24.142Z,35.75
2022-08-30T08:27:57.576Z,35.62
2022-08-30T08:29:32.524Z,35.70
2022-08-30T08:31:14.454Z,35.94
2022-08-30T08:32:48.676Z,35.64
2022-08-30T08:34:23.671Z,35.67
2022-08-30T08:35:57.587Z,35.74
2022-08-30T08:37:30.820Z,35.72
2022-08-30T08:39:06.029Z,35.87
2022-08-30T08:40:49.729Z,35.83
2022-08-30T08:42:31.942Z,35.81
2022-08-30T08:44:14.433Z,35.91
2022-08-30T08:45:56.393Z,36.20
2022-08-30T08:47:39.155Z,36.22
2022-08-30T08:49:13.042Z,36.34
2022-08-30T08:51:02.770Z,36.25
2022-08-30T08:53:06.048Z,36.13
2022-08-30T08:54:48.616Z,35.96
2022-08-30T08:56:23.504Z,35.86
2022-08-30T08:57:57.731Z,35.46
2022-08-30T08:59:31.177Z,35.30
2022-08-30T09:01:07.859Z,35.44
2022-08-30T09:02:44.569Z,35.28
2022-08-30T09:04:21.522Z,35.32
2022-08-30T09:05:55.774Z,35.54
2022-08-30T09:07:34.095Z,35.63
2022-08-30T09:09:07.368Z,35.79
2022-08-30T09:10:50.477Z,35.93
2022-08-30T09:12:24.360Z,35.66
2022-08-30T09:13:57.914Z,35.44
2022-08-30T09:15:34.443Z,35.12
2022-08-30T09:17:11.496Z,35.28
2022-08-30T09:20:43.408Z,35.64
2022-08-30T09:22:32.066Z,35.56
2022-08-30T09:24:08.889Z,35.44
2022-08-30T09:25:52.861Z,35.74
2022-08-30T09:27:33.279Z,35.66
2022-08-30T09:29:17.365Z,35.85
2022-08-30T09:31:03.992Z,35.83
2022-08-30T09:32:42.414Z,35.80
2022-08-30T09:34:19.295Z,36.04
2022-08-30T09:35:54.081Z,35.96
2022-08-30T09:37:32.690Z,35.75
2022-08-30T09:39:15.279Z,35.49
2022-08-30T09:40:50.993Z,35.39
2022-08-30T09:42:26.738Z,35.38
2022-08-30T09:44:10.112Z,35.31
2022-08-30T09:45:46.244Z,34.99
2022-08-30T09:47:24.239Z,34.51
2022-08-30T09:48:58.968Z,34.13
2022-08-30T09:50:37.120Z,33.94
2022-08-30T09:52:35.624Z,33.84
2022-08-30T09:54:19.839Z,33.77
2022-08-30T09:55:59.926Z,33.74
2022-08-30T09:57:40.249Z,33.65
2022-08-30T09:59:29.546Z,33.62
2022-08-30T10:01:10.834Z,33.80
2022-08-30T10:03:00.416Z,33.75
2022-08-30T10:04:41.985Z,33.81
2022-08-30T10:06:25.414Z,33.82
2022-08-30T10:08:13.081Z,33.66
2022-08-30T10:09:54.911Z,33.31
2022-08-30T10:11:34.331Z,33.27
2022-08-30T10:13:39.434Z,33.38
2022-08-30T10:15:20.592Z,33.43
2022-08-30T10:17:01.951Z,33.42
2022-08-30T10:18:43.273Z,33.37
2022-08-30T10:20:25.206Z,33.46
2022-08-30T10:22:03.634Z,33.43
2022-08-30T10:23:42.629Z,33.52
2022-08-30T10:25:22.548Z,33.45
2022-08-30T10:27:01.083Z,33.47
2022-08-30T10:28:43.685Z,33.53
2022-08-30T10:30:20.527Z,33.45
2022-08-30T10:31:58.127Z,33.14
2022-08-30T10:33:36.823Z,33.28
2022-08-30T10:35:17.500Z,33.41
2022-08-30T10:36:57.713Z,33.33
2022-08-30T10:38:35.261Z,33.23
2022-08-30T10:40:33.440Z,33.26
2022-08-30T10:42:11.484Z,33.26
2022-08-30T10:43:56.152Z,33.30
2022-08-30T10:45:32.017Z,33.30
2022-08-30T10:47:23.015Z,33.28
2022-08-30T10:48:59.450Z,33.03
2022-08-30T10:50:41.377Z,33.00
2022-08-30T10:52:25.557Z,33.10
2022-08-30T10:54:09.353Z,33.13
2022-08-30T10:55:50.340Z,33.29
2022-08-30T10:57:23.710Z,33.42
2022-08-30T10:58:59.276Z,33.45
2022-08-30T11:00:42.595Z,33.46
2022-08-30T11:02:39.939Z,33.34
2022-08-30T11:04:45.701Z,33.35
2022-08-30T11:06:26.389Z,33.17
2022-08-30T11:08:21.996Z,33.15
2022-08-30T11:10:15.498Z,32.94
2022-08-30T11:12:03.579Z,32.90
2022-08-30T11:13:41.376Z,32.90
2022-08-30T11:15:18.298Z,32.74
2022-08-30T11:16:57.604Z,32.49
2022-08-30T11:18:33.873Z,32.40
2022-08-30T11:20:24.585Z,32.42
2022-08-30T11:22:13.802Z,32.46
2022-08-30T11:24:06.647Z,32.53
2022-08-30T11:25:56.784Z,32.64
2022-08-30T11:27:51.726Z,32.63
2022-08-30T11:29:41.265Z,32.68
2022-08-30T11:31:36.143Z,32.51
2022-08-30T11:33:43.563Z,32.47
2022-08-30T11:35:45.956Z,32.51
2022-08-30T11:37:36.125Z,32.56
2022-08-30T11:39:13.026Z,32.54
2022-08-30T11:40:53.777Z,32.38
2022-08-30T11:42:35.039Z,32.17
2022-08-30T11:44:27.872Z,32.26
2022-08-30T11:46:16.876Z,32.34
2022-08-30T11:47:52.616Z,32.37
2022-08-30T11:49:46.115Z,32.49
2022-08-30T11:52:08.479Z,32.55
2022-08-30T11:53:51.189Z,32.54
2022-08-30T11:55:41.519Z,32.59
2022-08-30T11:57:26.453Z,32.29
2022-08-30T11:59:06.085Z,32.26
2022-08-30T12:00:52.670Z,32.10
2022-08-30T12:02:48.837Z,31.98
2022-08-30T12:04:37.476Z,31.87
2022-08-30T12:06:12.357Z,31.66
2022-08-30T12:08:01.090Z,31.86
2022-08-30T12:10:06.571Z,32.12
2022-08-30T12:12:09.314Z,32.21
2022-08-30T12:13:56.292Z,32.47
2022-08-30T12:15:58.977Z,32.46
2022-08-30T12:18:15.220Z,32.35
2022-08-30T12:19:50.815Z,32.40
2022-08-30T12:21:28.597Z,32.33
2022-08-30T12:23:20.312Z,32.31
2022-08-30T12:24:55.882Z,32.29
2022-08-30T12:26:36.526Z,32.20
2022-08-30T12:28:17.440Z,32.25
2022-08-30T12:29:52.941Z,32.13
2022-08-30T12:31:28.052Z,32.15
2022-08-30T12:33:01.867Z,32.22
2022-08-30T12:34:38.337Z,32.16
2022-08-30T12:36:18.620Z,32.14
2022-08-30T12:38:05.642Z,32.15
2022-08-30T12:39:41.029Z,32.00
2022-08-30T12:41:22.671Z,31.83
2022-08-30T12:42:58.444Z,31.69
2022-08-30T12:44:33.536Z,31.71
2022-08-30T12:46:11.601Z,31.64
2022-08-30T12:47:48.799Z,31.68
2022-08-30T12:49:25.170Z,31.70
2022-08-30T12:51:01.462Z,31.67
2022-08-30T12:52:38.826Z,31.76
2022-08-30T12:54:20.678Z,31.70
2022-08-30T12:55:59.582Z,31.61
2022-08-30T12:57:41.650Z,31.60
2022-08-30T13:00:02.675Z,31.67
2022-08-30T13:01:37.636Z,31.65
2022-08-30T13:03:30.948Z,31.71
2022-08-30T13:05:34.928Z,31.68
2022-08-30T13:07:08.783Z,31.64
2022-08-30T13:08:53.695Z,31.67
2022-08-30T13:10:26.956Z,31.63
2022-08-30T13:12:01.993Z,31.59
2022-08-30T13:13:44.514Z,31.41
2022-08-30T13:15:20.414Z,31.44
2022-08-30T13:17:07.871Z,31.33
2022-08-30T13:18:41.666Z,31.29
2022-08-30T13:20:28.162Z,31.35
2022-08-30T13:22:02.528Z,31.32
2022-08-30T13:23:35.740Z,31.33
2022-08-30T13:25:11.103Z,31.38
2022-08-30T13:26:45.368Z,31.41
2022-08-30T13:28:18.777Z,31.39
2022-08-30T13:29:52.273Z,31.38
2022-08-30T13:31:25.970Z,31.43
2022-08-30T13:33:02.314Z,31.45
2022-08-30T13:34:36.372Z,31.45
2022-08-30T13:36:09.655Z,31.51
2022-08-30T13:37:49.888Z,31.53
2022-08-30T13:39:24.850Z,31.44
2022-08-30T13:40:58.542Z,31.44
2022-08-30T13:42:32.231Z,31.48
2022-08-30T13:44:11.341Z,31.43
2022-08-30T13:45:45.604Z,31.43
2022-08-30T13:47:35.860Z,31.41
2022-08-30T13:51:16.691Z,31.37
2022-08-30T13:52:51.543Z,31.41
2022-08-30T13:54:25.778Z,31.42
2022-08-30T13:56:01.377Z,31.31
2022-08-30T13:57:54.371Z,31.38
2022-08-30T13:59:34.157Z,31.27
2022-08-30T14:01:08.036Z,31.23
2022-08-30T14:02:45.470Z,31.28
2022-08-30T14:04:22.902Z,31.21
2022-08-30T14:06:29.159Z,31.30
2022-08-30T14:07:52.401Z,31.25
2022-08-30T14:09:24.819Z,31.34
2022-08-30T14:10:59.183Z,31.32
2022-08-30T14:14:41.442Z,31.44
2022-08-30T14:16:31.840Z,31.54
2022-08-30T14:18:05.859Z,31.57
2022-08-30T14:19:41.288Z,31.59
2022-08-30T14:21:14.621Z,31.44
2022-08-30T14:22:48.135Z,31.42
2022-08-30T14:24:22.093Z,31.41
2022-08-30T14:25:56.883Z,31.43
2022-08-30T14:27:30.676Z,31.50
2022-08-30T14:29:08.867Z,31.50
2022-08-30T14:30:42.713Z,31.50
2022-08-30T14:32:16.371Z,31.47
2022-08-30T14:33:49.848Z,31.50
2022-08-30T14:35:24.754Z,31.56
2022-08-30T14:36:59.477Z,31.59
2022-08-30T14:38:32.908Z,31.65
2022-08-30T14:40:07.023Z,31.73
2022-08-30T14:41:44.250Z,31.73
2022-08-30T14:43:17.642Z,31.72
2022-08-30T14:44:56.645Z,31.72
2022-08-30T14:46:30.285Z,31.67
2022-08-30T14:48:11.495Z,31.71
2022-08-30T14:49:46.059Z,31.71
2022-08-30T14:51:23.194Z,31.67
2022-08-30T14:52:58.161Z,31.62
2022-08-30T14:55:03.716Z,31.09
2022-08-30T14:56:41.721Z,30.97
2022-08-30T14:58:21.162Z,31.05
2022-08-30T14:59:57.664Z,31.30
2022-08-30T15:01:37.332Z,31.06
2022-08-30T15:03:15.762Z,31.08
2022-08-30T15:04:49.570Z,31.19
2022-08-30T15:06:26.513Z,31.25
2022-08-30T15:07:59.920Z,31.18
2022-08-30T15:09:34.227Z,31.23
2022-08-30T15:11:12.150Z,31.24
2022-08-30T15:12:48.058Z,31.19
2022-08-30T15:14:21.447Z,31.10
2022-08-30T15:15:55.269Z,31.08
2022-08-30T15:17:28.603Z,31.02
2022-08-30T15:19:02.800Z,30.93
2022-08-30T15:20:36.219Z,30.83
2022-08-30T15:22:10.973Z,30.84
2022-08-30T15:23:44.844Z,30.75
2022-08-30T15:25:18.082Z,30.61
2022-08-30T15:26:51.551Z,30.53
2022-08-30T15:28:24.290Z,30.53
2022-08-30T15:29:57.650Z,30.44
2022-08-30T15:31:32.304Z,30.41
2022-08-30T15:33:06.106Z,30.38
2022-08-30T15:34:39.661Z,30.42
2022-08-30T15:36:13.560Z,30.41
2022-08-30T15:37:48.207Z,30.33
2022-08-30T15:39:21.657Z,30.25
2022-08-30T15:40:55.838Z,30.16
2022-08-30T15:42:29.120Z,30.23
2022-08-30T15:44:02.366Z,30.26
2022-08-30T15:45:35.735Z,30.26
2022-08-30T15:47:09.193Z,30.28
2022-08-30T15:48:45.513Z,30.21
2022-08-30T15:50:19.168Z,30.23
2022-08-30T15:51:54.229Z,30.21
2022-08-30T15:53:29.387Z,30.25
2022-08-30T15:55:02.872Z,30.25
2022-08-30T15:56:36.379Z,30.20
2022-08-30T15:58:09.696Z,30.22
2022-08-30T15:59:43.838Z,30.22
2022-08-30T16:01:18.241Z,30.21
2022-08-30T16:02:53.286Z,30.22
2022-08-30T16:04:26.613Z,30.18
2022-08-30T16:06:00.117Z,30.19
2022-08-30T16:07:39.905Z,30.20
2022-08-30T16:09:15.462Z,30.19
2022-08-30T16:10:49.339Z,30.16
2022-08-30T16:12:25.461Z,30.14
2022-08-30T16:13:59.859Z,30.15
2022-08-30T16:15:33.615Z,30.15
2022-08-30T16:17:07.893Z,30.09
2022-08-30T16:18:41.433Z,30.14
2022-08-30T16:20:14.974Z,30.11
2022-08-30T16:21:48.229Z,30.06
2022-08-30T16:23:21.853Z,29.86
2022-08-30T16:24:56.828Z,29.89
2022-08-30T16:26:31.866Z,29.84
2022-08-30T16:28:05.544Z,29.74
2022-08-30T16:29:39.170Z,29.75
2022-08-30T16:31:13.041Z,29.69
2022-08-30T16:32:49.362Z,29.60
2022-08-30T16:34:22.842Z,29.59
2022-08-30T16:35:57.255Z,29.58
2022-08-30T16:37:31.254Z,29.54
2022-08-30T16:39:05.776Z,29.46
2022-08-30T16:40:43.201Z,29.36
2022-08-30T16:42:20.976Z,29.33
2022-08-30T16:43:56.152Z,29.30
2022-08-30T16:45:34.262Z,29.27
2022-08-30T16:47:12.771Z,29.20
2022-08-30T16:48:47.568Z,29.11
2022-08-30T16:50:23.427Z,29.06
2022-08-30T16:51:56.683Z,28.99
2022-08-30T16:53:30.002Z,28.98
2022-08-30T16:55:03.290Z,28.91
2022-08-30T16:56:39.336Z,28.90
2022-08-30T16:58:15.866Z,28.82
2022-08-30T16:59:52.632Z,28.77
2022-08-30T17:01:25.996Z,28.71
2022-08-30T17:03:00.293Z,28.71
2022-08-30T17:04:33.625Z,28.63
2022-08-30T17:06:05.949Z,28.61
2022-08-30T17:07:40.438Z,28.57
2022-08-30T17:09:15.087Z,28.53
2022-08-30T17:10:49.899Z,28.48
2022-08-30T17:12:24.830Z,28.45
2022-08-30T17:13:59.513Z,28.44
2022-08-30T17:15:35.300Z,28.34
2022-08-30T17:17:09.319Z,28.28
2022-08-30T17:18:42.741Z,28.33
2022-08-30T17:20:16.605Z,28.30
2022-08-30T17:21:50.254Z,28.30
2022-08-30T17:23:24.239Z,28.29
2022-08-30T17:24:57.471Z,28.24
2022-08-30T17:26:31.170Z,28.22
2022-08-30T17:28:06.949Z,28.15
2022-08-30T17:29:40.452Z,28.09
2022-08-30T17:31:14.941Z,28.02
2022-08-30T17:32:49.275Z,27.95
2022-08-30T17:34:23.990Z,27.83
2022-08-30T17:36:00.137Z,27.80
2022-08-30T17:37:33.458Z,27.73
2022-08-30T17:39:11.065Z,27.62
2022-08-30T17:40:45.314Z,27.56
2022-08-30T17:42:18.647Z,27.48
2022-08-30T17:43:53.265Z,27.41
2022-08-30T17:45:26.464Z,27.35
2022-08-30T17:47:02.415Z,27.25
2022-08-30T17:48:34.775Z,27.22
2022-08-30T17:50:10.233Z,27.19
2022-08-30T17:51:45.833Z,27.14
2022-08-30T17:53:21.668Z,27.11
2022-08-30T17:54:56.371Z,27.04
2022-08-30T17:58:23.741Z,26.96
2022-08-30T17:59:58.803Z,26.91
2022-08-30T18:01:32.384Z,26.87
2022-08-30T18:03:05.972Z,26.85
2022-08-30T18:04:39.768Z,26.77
2022-08-30T18:06:15.688Z,26.77
2022-08-30T18:07:49.809Z,26.77
2022-08-30T18:09:23.904Z,26.77
2022-08-30T18:10:57.568Z,26.73
2022-08-30T18:12:30.036Z,26.62
2022-08-30T18:14:08.161Z,26.49
2022-08-30T18:15:45.717Z,26.40
2022-08-30T18:17:24.150Z,26.36
2022-08-30T18:18:57.665Z,26.28
2022-08-30T18:20:32.486Z,26.19
2022-08-30T18:22:05.876Z,26.18
2022-08-30T18:23:40.106Z,26.16
2022-08-30T18:25:13.170Z,26.12
2022-08-30T18:26:46.695Z,26.14
2022-08-30T18:28:19.951Z,26.08
2022-08-30T18:29:54.072Z,26.02
2022-08-30T18:31:27.688Z,25.98
2022-08-30T18:33:01.662Z,25.97
2022-08-30T18:34:36.106Z,25.88
2022-08-30T18:36:09.854Z,25.79
2022-08-30T18:37:43.823Z,25.73
2022-08-30T18:39:17.851Z,25.69
2022-08-30T18:40:58.975Z,25.48
2022-08-30T18:42:32.867Z,25.39
2022-08-30T18:44:26.549Z,25.37
2022-08-30T18:46:03.735Z,25.31
2022-08-30T18:47:38.731Z,25.24
2022-08-30T18:49:16.352Z,25.22
2022-08-30T18:50:50.403Z,25.26
2022-08-30T18:52:25.289Z,25.25
2022-08-30T18:53:59.336Z,25.28
2022-08-30T18:55:33.853Z,25.25
2022-08-30T18:57:07.706Z,25.20
2022-08-30T18:58:44.631Z,25.15
2022-08-30T19:00:18.777Z,25.16
2022-08-30T19:01:52.452Z,25.15
2022-08-30T19:03:27.142Z,25.02
2022-08-30T19:05:07.468Z,25.04
2022-08-30T19:06:43.307Z,24.98
2022-08-30T19:08:16.689Z,24.87
2022-08-30T19:09:51.306Z,24.80
2022-08-30T19:11:24.593Z,24.74
2022-08-30T19:12:59.906Z,24.80
2022-08-30T19:14:33.303Z,24.81
2022-08-30T19:16:08.999Z,24.77
2022-08-30T19:17:47.237Z,24.71
2022-08-30T19:19:22.362Z,24.68
2022-08-30T19:20:55.629Z,24.65
2022-08-30T19:22:36.088Z,24.63
2022-08-30T19:24:22.412Z,24.51
2022-08-30T19:25:57.659Z,24.46
2022-08-30T19:27:37.890Z,24.37
2022-08-30T19:29:12.238Z,24.30
2022-08-30T19:30:45.814Z,24.21
2022-08-30T19:32:19.019Z,24.26
2022-08-30T19:33:52.375Z,24.27
2022-08-30T19:35:30.133Z,24.28
2022-08-30T19:37:03.887Z,24.24
2022-08-30T19:38:37.544Z,24.13
2022-08-30T19:40:14.327Z,24.11
2022-08-30T19:41:47.634Z,24.12
2022-08-30T19:43:20.910Z,24.12
2022-08-30T19:44:54.423Z,24.11
2022-08-30T19:46:27.865Z,24.04
2022-08-30T19:48:02.029Z,23.96
2022-08-30T19:49:36.425Z,23.83
2022-08-30T19:51:13.778Z,23.81
2022-08-30T19:54:41.279Z,23.70
2022-08-30T19:56:14.730Z,23.68
2022-08-30T19:57:49.614Z,23.74
2022-08-30T19:59:22.784Z,23.79
2022-08-30T20:02:50.696Z,23.75
2022-08-30T20:04:24.709Z,23.77
2022-08-30T20:05:58.276Z,23.76
2022-08-30T20:07:36.198Z,23.81
2022-08-30T20:09:10.586Z,23.80
2022-08-30T20:10:44.698Z,23.73
2022-08-30T20:12:19.243Z,23.64
2022-08-30T20:13:52.560Z,23.71
2022-08-30T20:15:27.404Z,23.76
2022-08-30T20:16:59.738Z,23.75
2022-08-30T20:18:36.606Z,23.78
2022-08-30T20:20:12.865Z,23.83
2022-08-30T20:21:46.383Z,23.83
2022-08-30T20:23:24.162Z,23.82
2022-08-30T20:24:26.360Z,27.00
2022-08-30T20:24:58.856Z,23.83
2022-08-30T20:26:34.504Z,23.86
2022-08-30T20:28:08.297Z,23.82
2022-08-30T20:29:41.999Z,23.88
2022-08-30T20:31:15.355Z,23.90
2022-08-30T20:32:48.663Z,23.91
2022-08-30T20:34:27.534Z,23.88
2022-08-30T20:36:02.669Z,23.88
2022-08-30T20:37:35.997Z,23.87
2022-08-30T20:39:09.620Z,23.91
2022-08-30T20:40:44.711Z,23.94
2022-08-30T20:42:18.032Z,23.97
2022-08-30T20:43:51.911Z,23.96
2022-08-30T20:45:25.121Z,23.92
2022-08-30T20:47:05.405Z,24.02
2022-08-30T20:48:38.993Z,24.02
2022-08-30T20:50:14.406Z,24.02
2022-08-30T20:51:52.847Z,24.01
2022-08-30T20:53:28.202Z,24.03
2022-08-30T20:55:03.234Z,24.05
2022-08-30T20:56:37.311Z,24.07